Time;durP1;ratioP1;P1;durP2;ratioP2;P2;SDS_P1;SDS_P2;PMS_P1;PMS_P2;Temp;Humidity;BMP_temperature;BMP_pressure;BME280_temperature;BME280_humidity;BME280_pressure;Samples;Min_cycle;Max_cycle;Signal;HPM_P1;HPM_P2
2023/05/09 00:05:10;;;;;;;8.32;6.50;;;;;;;;;;6118544;28;20073;-74
2023/05/09 00:12:15;;;;;;;9.90;6.82;;;;;;;;;;6072955;29;20438;-73
2023/05/09 00:19:11;;;;;;;8.43;6.05;;;;;;;;;;6113602;29;20092;-73
2023/05/09 00:22:32;;;;;;;8.43;6.93;;;;;;;;;;6130358;28;20059;-73
2023/05/09 00:25:34;;;;;;;7.07;6.15;;;;;;;;;;6164043;28;20047;-74
2023/05/09 00:32:07;;;;;;;8.07;6.38;;;;;;;;;;6157630;28;20054;-73
2023/05/09 00:35:18;;;;;;;9.43;6.30;;;;;;;;;;6165536;28;20055;-73
2023/05/09 00:38:20;;;;;;;9.52;6.40;;;;;;;;;;6164353;28;20055;-73
2023/05/09 00:42:12;;;;;;;7.28;5.95;;;;;;;;;;6163602;28;20062;-73
2023/05/09 00:48:31;;;;;;;11.93;6.25;;;;;;;;;;6242486;28;20048;-73
2023/05/09 00:58:51;;;;;;;7.45;5.40;;;;;;;;;;6280441;28;20044;-73
2023/05/09 01:02:20;;;;;;;7.85;5.78;;;;;;;;;;6291767;28;20055;-73
2023/05/09 01:09:33;;;;;;;6.57;5.53;;;;;;;;;;6220414;28;20289;-73
2023/05/09 01:17:18;;;;;;;8.07;5.20;;;;;;;;;;6073925;29;20045;-73
2023/05/09 01:33:12;;;;;;;5.95;5.10;;;;;;;;;;5960914;29;20054;-73
2023/05/09 02:01:25;;;;;;;211.20;194.40;;;;;;;;;;6072827;29;20040;-73
2023/05/09 02:04:28;;;;;;;7.88;5.65;;;;;;;;;;6190715;28;20300;-73
2023/05/09 02:07:30;;;;;;;227.93;204.90;;;;;;;;;;6238749;28;20480;-73
2023/05/09 02:11:12;;;;;;;317.13;292.00;;;;;;;;;;6229732;28;20772;-74
2023/05/09 02:14:14;;;;;;;315.50;289.97;;;;;;;;;;6239265;28;20342;-73
2023/05/09 02:17:18;;;;;;;9.70;6.82;;;;;;;;;;6235202;28;20045;-73
2023/05/09 02:20:22;;;;;;;127.63;116.25;;;;;;;;;;6246627;28;20080;-72
2023/05/09 02:23:24;;;;;;;9.88;7.70;;;;;;;;;;6294597;28;20051;-73
2023/05/09 02:27:18;;;;;;;11.27;8.18;;;;;;;;;;6269435;28;20265;-73
2023/05/09 02:31:17;;;;;;;11.52;7.82;;;;;;;;;;6142183;28;20055;-73
2023/05/09 02:38:32;;;;;;;11.38;8.27;;;;;;;;;;6147785;28;20043;-73
2023/05/09 02:41:34;;;;;;;11.60;8.02;;;;;;;;;;6155527;28;20054;-73
2023/05/09 02:44:46;;;;;;;12.75;8.95;;;;;;;;;;6157895;28;20058;-73
2023/05/09 02:47:48;;;;;;;18.77;10.25;;;;;;;;;;6182566;28;20061;-73
2023/05/09 02:50:56;;;;;;;11.50;7.65;;;;;;;;;;6203648;28;20062;-73
2023/05/09 02:54:18;;;;;;;10.95;8.13;;;;;;;;;;6221412;28;20046;-73
2023/05/09 02:57:21;;;;;;;19.90;9.98;;;;;;;;;;6227851;28;20049;-73
2023/05/09 03:00:24;;;;;;;10.27;7.30;;;;;;;;;;6244665;28;20053;-73
2023/05/09 03:03:26;;;;;;;11.85;7.55;;;;;;;;;;6316158;28;20056;-73
2023/05/09 03:10:25;;;;;;;57.70;48.67;;;;;;;;;;6130053;28;20300;-73
2023/05/09 03:14:19;;;;;;;10.93;7.03;;;;;;;;;;6154604;28;20054;-73
2023/05/09 03:17:48;;;;;;;10.90;6.53;;;;;;;;;;6134976;28;20048;-73
2023/05/09 03:28:47;;;;;;;11.18;7.13;;;;;;;;;;6025057;29;20322;-75
2023/05/09 03:36:19;;;;;;;10.02;6.88;;;;;;;;;;5920838;29;20281;-74
2023/05/09 03:40:15;;;;;;;9.52;7.10;;;;;;;;;;5911344;29;20849;-75
2023/05/09 03:51:44;;;;;;;10.85;7.57;;;;;;;;;;5941534;29;20076;-75
2023/05/09 03:54:46;;;;;;;13.43;7.25;;;;;;;;;;5965485;29;20054;-74
2023/05/09 04:10:21;;;;;;;10.52;7.40;;;;;;;;;;6131796;28;20063;-75
2023/05/09 04:13:42;;;;;;;11.90;8.70;;;;;;;;;;6130288;28;20058;-75
2023/05/09 04:24:25;;;;;;;9.95;7.13;;;;;;;;;;6199308;28;20050;-75
2023/05/09 04:28:07;;;;;;;12.00;8.00;;;;;;;;;;6191931;28;20051;-75
2023/05/09 04:31:55;;;;;;;9.43;7.50;;;;;;;;;;6132922;28;20054;-75
2023/05/09 04:35:17;;;;;;;9.35;7.22;;;;;;;;;;6170132;28;20417;-76
2023/05/09 04:38:56;;;;;;;13.27;8.40;;;;;;;;;;6168669;28;20059;-74
2023/05/09 04:41:58;;;;;;;10.73;7.78;;;;;;;;;;6185235;28;20327;-74
2023/05/09 04:49:19;;;;;;;10.65;7.28;;;;;;;;;;6169392;28;20073;-73
2023/05/09 04:52:27;;;;;;;11.38;7.53;;;;;;;;;;6181907;28;20105;-73
2023/05/09 04:55:29;;;;;;;10.30;7.55;;;;;;;;;;6192045;28;20058;-75
2023/05/09 04:58:37;;;;;;;10.52;7.95;;;;;;;;;;6296731;28;20210;-74
2023/05/09 05:01:40;;;;;;;9.27;7.72;;;;;;;;;;6296058;28;20061;-75
2023/05/09 05:04:46;;;;;;;11.73;6.80;;;;;;;;;;6296658;28;20063;-74
2023/05/09 05:07:48;;;;;;;11.32;7.80;;;;;;;;;;6297838;28;20103;-74
2023/05/09 05:10:59;;;;;;;15.50;8.68;;;;;;;;;;6291057;28;20102;-74
2023/05/09 05:14:20;;;;;;;9.45;6.95;;;;;;;;;;6293680;28;20044;-74
2023/05/09 05:17:32;;;;;;;;;;;;;;;;;;;;;
2023/05/09 05:20:36;;;;;;;11.50;7.65;;;;;;;;;;6278296;28;20044;-74
2023/05/09 05:23:38;;;;;;;15.82;7.80;;;;;;;;;;6292454;28;20060;-73
2023/05/09 05:26:39;;;;;;;10.73;7.50;;;;;;;;;;6288767;28;20060;-73
2023/05/09 05:29:44;;;;;;;11.63;6.53;;;;;;;;;;6295067;28;20053;-73
2023/05/09 05:32:50;;;;;;;13.70;6.93;;;;;;;;;;6296346;28;20603;-73
2023/05/09 05:35:54;;;;;;;9.00;6.70;;;;;;;;;;6295937;28;20052;-73
2023/05/09 05:39:28;;;;;;;10.15;6.50;;;;;;;;;;6279621;28;20057;-73
2023/05/09 05:46:06;;;;;;;11.93;7.23;;;;;;;;;;6294881;28;20053;-73
2023/05/09 05:49:08;;;;;;;8.60;6.57;;;;;;;;;;6296676;28;20263;-73
2023/05/09 05:52:11;;;;;;;7.70;6.00;;;;;;;;;;6307943;28;20063;-73
2023/05/09 05:55:15;;;;;;;8.30;6.00;;;;;;;;;;6321667;28;20102;-73
2023/05/09 05:58:18;;;;;;;11.85;5.95;;;;;;;;;;6320352;28;20114;-73
2023/05/09 06:01:20;;;;;;;8.67;5.97;;;;;;;;;;6320875;28;20356;-73
2023/05/09 06:07:57;;;;;;;;;;;;;;;;;;6309750;28;20272;-73
2023/05/09 06:11:01;;;;;;;8.85;5.32;;;;;;;;;;6324608;28;19928;-73
2023/05/09 06:14:03;;;;;;;10.75;5.78;;;;;;;;;;6318231;28;20055;-72
2023/05/09 06:17:04;;;;;;;8.13;5.85;;;;;;;;;;6324587;28;20067;-74
2023/05/09 06:20:07;;;;;;;8.65;5.60;;;;;;;;;;6325160;28;20115;-73
2023/05/09 06:26:27;;;;;;;9.30;6.30;;;;;;;;;;6231219;28;20056;-73
2023/05/09 06:29:29;;;;;;;8.52;6.22;;;;;;;;;;6224819;28;20049;-73
2023/05/09 06:32:31;;;;;;;10.00;6.50;;;;;;;;;;6226939;28;20090;-73
2023/05/09 06:35:33;;;;;;;10.07;7.18;;;;;;;;;;6230684;28;20229;-73
2023/05/09 06:38:36;;;;;;;10.35;6.47;;;;;;;;;;6224773;28;20285;-73
2023/05/09 06:41:38;;;;;;;9.82;6.55;;;;;;;;;;6226748;28;20251;-73
2023/05/09 06:44:40;;;;;;;10.43;7.35;;;;;;;;;;6227119;28;20235;-73
2023/05/09 06:47:41;;;;;;;12.30;7.07;;;;;;;;;;6227444;28;20097;-73
2023/05/09 06:50:43;;;;;;;9.75;7.30;;;;;;;;;;6219256;28;20058;-73
2023/05/09 06:53:46;;;;;;;8.68;7.28;;;;;;;;;;6225519;28;20064;-73
2023/05/09 06:56:48;;;;;;;9.70;6.95;;;;;;;;;;6270331;28;20048;-73
2023/05/09 06:59:50;;;;;;;11.05;7.38;;;;;;;;;;6324831;28;20055;-73
2023/05/09 07:02:52;;;;;;;8.20;5.90;;;;;;;;;;6325262;28;20036;-73
2023/05/09 07:06:11;;;;;;;8.73;6.47;;;;;;;;;;6325713;28;20130;-73
2023/05/09 07:09:16;;;;;;;9.88;6.78;;;;;;;;;;6328225;28;20060;-73
2023/05/09 07:12:25;;;;;;;7.18;5.88;;;;;;;;;;6323519;28;20115;-73
2023/05/09 07:15:28;;;;;;;8.65;6.10;;;;;;;;;;6324371;28;20049;-73
2023/05/09 07:18:48;;;;;;;10.63;6.20;;;;;;;;;;6325551;28;20060;-73
2023/05/09 07:22:13;;;;;;;11.55;6.32;;;;;;;;;;6323492;28;20397;-73
2023/05/09 07:25:17;;;;;;;7.70;6.10;;;;;;;;;;6321326;28;20309;-73
2023/05/09 07:28:18;;;;;;;7.32;5.57;;;;;;;;;;6323545;28;20393;-74
2023/05/09 07:31:20;;;;;;;6.18;5.43;;;;;;;;;;6324627;28;20051;-73
2023/05/09 07:34:24;;;;;;;7.15;5.57;;;;;;;;;;6323458;28;20048;-73
2023/05/09 07:37:26;;;;;;;10.80;5.90;;;;;;;;;;6321707;28;20089;-73
2023/05/09 07:40:29;;;;;;;8.60;6.07;;;;;;;;;;6323272;28;20344;-73
2023/05/09 07:43:31;;;;;;;;;;;;;;;;;;6314527;28;20136;-73
2023/05/09 07:46:33;;;;;;;6.47;5.13;;;;;;;;;;6325159;28;19916;-73
2023/05/09 07:49:39;;;;;;;15.60;5.60;;;;;;;;;;6324467;28;20053;-73
2023/05/09 07:52:56;;;;;;;6.32;4.63;;;;;;;;;;6295599;28;20052;-73
2023/05/09 07:56:06;;;;;;;6.00;4.20;;;;;;;;;;6298592;28;20056;-73
2023/05/09 07:59:09;;;;;;;7.03;5.32;;;;;;;;;;6302254;28;20206;-73
2023/05/09 08:02:12;;;;;;;6.47;5.07;;;;;;;;;;6303271;28;20060;-73
2023/05/09 08:05:14;;;;;;;7.22;5.32;;;;;;;;;;6300629;28;20159;-73
2023/05/09 08:08:16;;;;;;;9.90;5.47;;;;;;;;;;6302087;28;20059;-74
2023/05/09 08:11:34;;;;;;;5.88;4.72;;;;;;;;;;6300605;28;20171;-73
2023/05/09 08:14:36;;;;;;;31.98;29.25;;;;;;;;;;6298950;28;20236;-73
2023/05/09 08:17:38;;;;;;;5.97;4.80;;;;;;;;;;6298454;28;20062;-73
2023/05/09 08:20:41;;;;;;;25.08;10.30;;;;;;;;;;6300978;28;20053;-73
2023/05/09 08:24:09;;;;;;;34.65;25.05;;;;;;;;;;6297578;28;20057;-73
2023/05/09 08:27:14;;;;;;;218.90;198.40;;;;;;;;;;6301969;28;20569;-73
2023/05/09 08:30:19;;;;;;;126.53;115.40;;;;;;;;;;6300455;28;20094;-73
2023/05/09 08:33:25;;;;;;;897.80;819.50;;;;;;;;;;6297955;28;20072;-73
2023/05/09 08:36:29;;;;;;;15.27;9.60;;;;;;;;;;6295439;28;20761;-73
2023/05/09 08:39:33;;;;;;;86.38;66.07;;;;;;;;;;6299830;28;20067;-73
2023/05/09 08:42:44;;;;;;;58.70;52.35;;;;;;;;;;6301095;28;20053;-73
2023/05/09 08:45:47;;;;;;;6.78;4.35;;;;;;;;;;6302197;28;20054;-73
2023/05/09 08:48:50;;;;;;;19.23;16.20;;;;;;;;;;6298610;28;20060;-73
2023/05/09 08:51:52;;;;;;;8.10;4.50;;;;;;;;;;6308864;28;20071;-73
2023/05/09 08:54:54;;;;;;;4.63;3.75;;;;;;;;;;6325400;27;20214;-73
2023/05/09 08:58:00;;;;;;;10.20;7.75;;;;;;;;;;6326759;28;20041;-73
2023/05/09 09:01:05;;;;;;;7.03;4.35;;;;;;;;;;6320888;28;20263;-73
2023/05/09 09:04:08;;;;;;;5.38;4.32;;;;;;;;;;6325068;28;20051;-73
2023/05/09 09:07:11;;;;;;;6.45;4.50;;;;;;;;;;6327463;28;20078;-73
2023/05/09 09:10:24;;;;;;;4.97;4.35;;;;;;;;;;6328788;28;20213;-73
2023/05/09 09:13:39;;;;;;;5.80;4.57;;;;;;;;;;6324063;28;20324;-73
2023/05/09 09:16:45;;;;;;;6.65;5.10;;;;;;;;;;6310649;28;20076;-73
2023/05/09 09:19:55;;;;;;;22.67;19.98;;;;;;;;;;6316132;28;20128;-73
2023/05/09 09:23:00;;;;;;;9.77;4.95;;;;;;;;;;6309676;28;20057;-73
2023/05/09 09:26:06;;;;;;;6.07;5.25;;;;;;;;;;6300885;28;20334;-73
2023/05/09 09:29:19;;;;;;;7.53;5.35;;;;;;;;;;6321904;28;20052;-73
2023/05/09 09:32:21;;;;;;;11.13;5.35;;;;;;;;;;6309837;28;20105;-73
2023/05/09 09:35:23;;;;;;;38.30;31.97;;;;;;;;;;6321378;28;20328;-73
2023/05/09 09:38:43;;;;;;;6.35;5.38;;;;;;;;;;6320561;28;20149;-73
2023/05/09 09:41:48;;;;;;;52.38;39.15;;;;;;;;;;6328793;28;21126;-73
2023/05/09 09:44:52;;;;;;;;;;;;;;;;;;6324676;28;20075;-73
2023/05/09 09:47:57;;;;;;;;;;;;;;;;;;6326415;28;24503;-73
2023/05/09 09:51:08;;;;;;;;;;;;;;;;;;6325068;28;19916;-73
2023/05/09 09:54:10;;;;;;;;;;;;;;;;;;6309366;28;20014;-73
2023/05/09 09:57:12;;;;;;;;;;;;;;;;;;6330393;28;19922;-73
2023/05/09 10:00:17;;;;;;;4.05;3.08;;;;;;;;;;6327817;28;19931;-73
2023/05/09 10:03:19;;;;;;;7.65;5.90;;;;;;;;;;6325724;28;20064;-73
2023/05/09 10:06:21;;;;;;;6.07;5.47;;;;;;;;;;6324938;28;20051;-73
2023/05/09 10:09:23;;;;;;;6.95;5.75;;;;;;;;;;6327874;28;20111;-73
2023/05/09 10:12:25;;;;;;;6.72;5.95;;;;;;;;;;6327840;28;20067;-73
2023/05/09 10:15:32;;;;;;;6.80;5.85;;;;;;;;;;6324746;28;20051;-73
2023/05/09 10:18:34;;;;;;;7.25;6.53;;;;;;;;;;6325297;28;20058;-72
2023/05/09 10:21:38;;;;;;;7.60;6.10;;;;;;;;;;6323449;28;20709;-72
2023/05/09 10:24:41;;;;;;;7.38;6.55;;;;;;;;;;6324064;28;20348;-73
2023/05/09 10:27:47;;;;;;;7.93;6.07;;;;;;;;;;6329015;28;20052;-72
2023/05/09 10:31:04;;;;;;;9.05;6.78;;;;;;;;;;6324035;28;20397;-72
2023/05/09 10:34:15;;;;;;;7.55;6.75;;;;;;;;;;6323668;28;20051;-72
2023/05/09 10:37:17;;;;;;;7.47;6.68;;;;;;;;;;6321682;27;20071;-72
2023/05/09 10:40:19;;;;;;;11.27;7.63;;;;;;;;;;6324007;28;20056;-72
2023/05/09 10:43:22;;;;;;;9.45;7.47;;;;;;;;;;6327400;28;20065;-72
2023/05/09 10:46:26;;;;;;;7.45;5.80;;;;;;;;;;6328135;28;20113;-72
2023/05/09 10:49:31;;;;;;;9.05;6.38;;;;;;;;;;6325651;28;20100;-72
2023/05/09 10:52:35;;;;;;;7.70;6.57;;;;;;;;;;6324849;28;20063;-73
2023/05/09 10:55:48;;;;;;;9.18;6.88;;;;;;;;;;6325570;28;20043;-72
2023/05/09 10:58:50;;;;;;;8.88;6.88;;;;;;;;;;6323674;28;20066;-72
2023/05/09 11:01:59;;;;;;;9.85;7.70;;;;;;;;;;6326909;28;20063;-72
2023/05/09 11:05:53;;;;;;;10.73;6.50;;;;;;;;;;6327720;28;20364;-73
2023/05/09 11:08:55;;;;;;;11.32;8.40;;;;;;;;;;6222405;28;20124;-72
2023/05/09 11:12:02;;;;;;;10.38;7.40;;;;;;;;;;6225951;28;20073;-72
2023/05/09 11:15:08;;;;;;;8.85;7.25;;;;;;;;;;6228094;28;20103;-73
2023/05/09 11:18:13;;;;;;;8.45;7.60;;;;;;;;;;6223297;28;20054;-72
2023/05/09 11:21:15;;;;;;;9.50;7.10;;;;;;;;;;6223948;28;20362;-73
2023/05/09 11:24:18;;;;;;;10.45;6.97;;;;;;;;;;6225870;28;20559;-73
2023/05/09 11:27:41;;;;;;;15.70;9.20;;;;;;;;;;6225517;28;20076;-73
2023/05/09 11:30:43;;;;;;;9.73;7.72;;;;;;;;;;6229325;28;20478;-74
2023/05/09 11:33:53;;;;;;;10.68;9.10;;;;;;;;;;6224244;28;20057;-72
2023/05/09 11:37:13;;;;;;;10.13;9.13;;;;;;;;;;6209632;28;20049;-73
2023/05/09 11:40:48;;;;;;;9.95;8.25;;;;;;;;;;6300845;28;20051;-72
2023/05/09 11:43:59;;;;;;;9.55;8.30;;;;;;;;;;6322472;28;20043;-73
2023/05/09 11:47:06;;;;;;;10.00;8.15;;;;;;;;;;6325417;28;20048;-74
2023/05/09 11:50:16;;;;;;;11.70;7.47;;;;;;;;;;6325636;28;20058;-74
2023/05/09 11:53:25;;;;;;;9.25;7.25;;;;;;;;;;6325387;28;20328;-74
2023/05/09 11:56:27;;;;;;;8.75;6.65;;;;;;;;;;6323512;28;20048;-74
2023/05/09 11:59:44;;;;;;;7.80;6.60;;;;;;;;;;6324908;28;20055;-74
2023/05/09 12:02:46;;;;;;;11.85;7.45;;;;;;;;;;6312968;28;20235;-73
2023/05/09 12:05:56;;;;;;;9.17;7.80;;;;;;;;;;6325903;28;20048;-74
2023/05/09 12:08:58;;;;;;;136.45;87.30;;;;;;;;;;6321153;27;20111;-74
2023/05/09 12:12:00;;;;;;;39.17;22.70;;;;;;;;;;6310839;28;20112;-74
2023/05/09 12:18:48;;;;;;;26.70;17.88;;;;;;;;;;6321847;28;20381;-73
2023/05/09 12:21:57;;;;;;;14.15;11.43;;;;;;;;;;6323929;28;20213;-74
2023/05/09 12:25:06;;;;;;;26.42;16.40;;;;;;;;;;6320500;28;20678;-76
2023/05/09 12:28:23;;;;;;;60.97;36.78;;;;;;;;;;6323344;28;20119;-74
2023/05/09 12:31:40;;;;;;;16.60;12.43;;;;;;;;;;6316460;28;20080;-74
2023/05/09 12:34:47;;;;;;;62.08;38.35;;;;;;;;;;6320736;28;20075;-74
2023/05/09 12:38:00;;;;;;;9.02;7.68;;;;;;;;;;6325140;28;20040;-73
2023/05/09 12:41:45;;;;;;;;;;;;;;;;;;;;;
2023/05/09 12:44:51;;;;;;;10.43;7.75;;;;;;;;;;6324074;28;20040;-73
2023/05/09 12:47:57;;;;;;;7.88;5.70;;;;;;;;;;6321502;28;20367;-73
2023/05/09 12:51:31;;;;;;;9.88;7.70;;;;;;;;;;6321001;28;20078;-73
2023/05/09 12:54:43;;;;;;;9.40;7.90;;;;;;;;;;6314879;28;20052;-73
2023/05/09 12:57:59;;;;;;;8.23;6.50;;;;;;;;;;6322402;28;20051;-73
2023/05/09 13:01:13;;;;;;;6.72;6.03;;;;;;;;;;6320945;28;20065;-73
2023/05/09 13:04:30;;;;;;;7.10;5.97;;;;;;;;;;6321719;28;20119;-72
2023/05/09 13:08:08;;;;;;;8.52;6.22;;;;;;;;;;6308727;28;20047;-72
2023/05/09 13:11:12;;;;;;;6.90;6.22;;;;;;;;;;6313310;28;20468;-71
2023/05/09 13:14:26;;;;;;;7.57;6.18;;;;;;;;;;6318441;28;20059;-72
2023/05/09 13:17:52;;;;;;;9.98;6.88;;;;;;;;;;6328089;28;20050;-72
2023/05/09 13:20:54;;;;;;;6.03;5.35;;;;;;;;;;6311986;28;20089;-72
2023/05/09 13:23:56;;;;;;;7.60;6.87;;;;;;;;;;6316425;28;20047;-72
2023/05/09 13:27:44;;;;;;;8.63;6.77;;;;;;;;;;6324720;28;20178;-72
2023/05/09 13:30:48;;;;;;;6.93;5.88;;;;;;;;;;6303855;28;21445;-72
2023/05/09 13:33:59;;;;;;;7.05;6.32;;;;;;;;;;6331538;28;20052;-72
2023/05/09 13:37:01;;;;;;;7.63;6.60;;;;;;;;;;6328000;28;20298;-72
2023/05/09 13:40:03;;;;;;;8.55;7.22;;;;;;;;;;6326599;28;20257;-72
2023/05/09 13:43:05;;;;;;;7.33;5.80;;;;;;;;;;6325586;28;20054;-72
2023/05/09 13:46:11;;;;;;;7.80;6.88;;;;;;;;;;6326686;28;20067;-71
2023/05/09 13:49:15;;;;;;;9.60;7.10;;;;;;;;;;6324190;28;20114;-72
2023/05/09 13:52:21;;;;;;;8.73;6.93;;;;;;;;;;6327071;28;20068;-72
2023/05/09 13:55:29;;;;;;;16.45;13.45;;;;;;;;;;6322514;28;20045;-72
2023/05/09 13:58:32;;;;;;;18.08;14.93;;;;;;;;;;6326009;28;20283;-73
2023/05/09 14:01:36;;;;;;;10.02;8.82;;;;;;;;;;6327196;28;20048;-72
2023/05/09 14:04:38;;;;;;;11.15;7.43;;;;;;;;;;6327192;28;20089;-72
2023/05/09 14:07:46;;;;;;;7.82;6.95;;;;;;;;;;6325390;28;20067;-71
2023/05/09 14:10:53;;;;;;;7.70;6.88;;;;;;;;;;6324639;28;20109;-71
2023/05/09 14:14:01;;;;;;;8.80;7.22;;;;;;;;;;6325781;28;20115;-71
2023/05/09 14:17:04;;;;;;;9.25;8.05;;;;;;;;;;6323682;28;20269;-71
2023/05/09 14:20:17;;;;;;;19.15;7.90;;;;;;;;;;6326621;28;20063;-71
2023/05/09 14:23:19;;;;;;;9.23;7.80;;;;;;;;;;6322076;28;20052;-71
2023/05/09 14:26:25;;;;;;;9.30;7.78;;;;;;;;;;6324425;28;20043;-71
2023/05/09 14:29:41;;;;;;;12.57;8.98;;;;;;;;;;6325186;28;20140;-71
2023/05/09 14:32:44;;;;;;;10.40;8.50;;;;;;;;;;6322411;27;20429;-71
2023/05/09 14:35:46;;;;;;;11.13;8.18;;;;;;;;;;6325406;28;20051;-73
2023/05/09 14:38:48;;;;;;;11.47;8.63;;;;;;;;;;6320529;28;20066;-73
2023/05/09 14:41:51;;;;;;;13.75;9.70;;;;;;;;;;6325449;28;20127;-72
2023/05/09 14:45:01;;;;;;;10.87;8.90;;;;;;;;;;6322731;28;20117;-73
2023/05/09 14:48:05;;;;;;;13.13;9.43;;;;;;;;;;6312950;28;20511;-74
2023/05/09 14:51:07;;;;;;;12.38;9.57;;;;;;;;;;6319310;28;20063;-72
2023/05/09 14:54:09;;;;;;;15.07;9.73;;;;;;;;;;6301130;28;20063;-73
2023/05/09 14:57:56;;;;;;;9.48;8.40;;;;;;;;;;6290019;28;20264;-72
2023/05/09 15:01:15;;;;;;;23.05;16.50;;;;;;;;;;6295555;28;20122;-74
2023/05/09 15:04:42;;;;;;;23.88;17.38;;;;;;;;;;6287027;28;20109;-72
2023/05/09 15:07:44;;;;;;;11.20;8.27;;;;;;;;;;6285027;28;20345;-72
2023/05/09 15:10:47;;;;;;;10.82;7.88;;;;;;;;;;6299627;28;20080;-72
2023/05/09 15:13:53;;;;;;;9.23;7.23;;;;;;;;;;6304084;28;20070;-72
2023/05/09 15:17:07;;;;;;;;;;;;;;;;;;;;;
2023/05/09 15:20:13;;;;;;;10.68;7.78;;;;;;;;;;6300975;28;20098;-72
2023/05/09 15:23:20;;;;;;;9.55;7.55;;;;;;;;;;6300639;28;20222;-72
2023/05/09 15:26:23;;;;;;;8.25;7.05;;;;;;;;;;6251120;28;20064;-72
2023/05/09 15:29:34;;;;;;;13.10;6.85;;;;;;;;;;6288058;28;20121;-72
2023/05/09 15:33:10;;;;;;;8.77;6.93;;;;;;;;;;6296442;28;20074;-72
2023/05/09 15:36:13;;;;;;;8.07;6.45;;;;;;;;;;6303798;28;20063;-72
2023/05/09 15:39:18;;;;;;;10.95;7.90;;;;;;;;;;6290030;28;20064;-72
2023/05/09 15:42:20;;;;;;;8.68;7.00;;;;;;;;;;6287187;28;20048;-72
2023/05/09 15:45:36;;;;;;;9.10;7.28;;;;;;;;;;6275023;28;20052;-72
2023/05/09 15:48:41;;;;;;;10.02;7.82;;;;;;;;;;6294501;28;21078;-72
2023/05/09 15:51:45;;;;;;;12.30;8.43;;;;;;;;;;6305136;28;20060;-72
2023/05/09 15:54:47;;;;;;;18.83;9.63;;;;;;;;;;6323574;27;21447;-72
2023/05/09 15:57:50;;;;;;;12.30;8.80;;;;;;;;;;6323448;28;20055;-72
2023/05/09 16:01:06;;;;;;;;;;;;;;;;;;;;;
2023/05/09 16:04:12;;;;;;;10.65;8.27;;;;;;;;;;6321404;28;20433;-72
2023/05/09 16:07:19;;;;;;;10.35;8.18;;;;;;;;;;6321980;28;20159;-72
2023/05/09 16:10:51;;;;;;;13.57;8.68;;;;;;;;;;6312858;28;20646;-73
2023/05/09 16:17:31;;;;;;;11.55;7.88;;;;;;;;;;6235737;28;20071;-72
2023/05/09 16:20:33;;;;;;;11.63;7.82;;;;;;;;;;6322730;28;20074;-71
2023/05/09 16:23:38;;;;;;;10.38;7.35;;;;;;;;;;6321153;28;20111;-72
2023/05/09 16:26:40;;;;;;;10.50;8.20;;;;;;;;;;6317777;28;20281;-72
2023/05/09 16:29:42;;;;;;;12.55;8.20;;;;;;;;;;6321554;28;20047;-72
2023/05/09 16:32:44;;;;;;;10.38;7.40;;;;;;;;;;6325099;28;20060;-72
2023/05/09 16:35:47;;;;;;;10.88;6.53;;;;;;;;;;6325196;28;20094;-72
2023/05/09 16:42:07;;;;;;;8.20;6.32;;;;;;;;;;6284115;28;20050;-72
2023/05/09 16:48:25;;;;;;;8.50;6.93;;;;;;;;;;6286087;28;20324;-73
2023/05/09 16:51:27;;;;;;;10.98;7.60;;;;;;;;;;6295900;28;20255;-72
2023/05/09 16:54:31;;;;;;;11.98;7.30;;;;;;;;;;6298197;28;20064;-72
2023/05/09 16:57:33;;;;;;;10.27;7.43;;;;;;;;;;6293052;28;21064;-72
2023/05/09 17:00:54;;;;;;;12.48;8.32;;;;;;;;;;6294765;28;20053;-73
2023/05/09 17:04:37;;;;;;;10.90;8.52;;;;;;;;;;6294262;28;20048;-73
2023/05/09 17:08:10;;;;;;;12.68;8.38;;;;;;;;;;6295845;28;20048;-73
2023/05/09 17:11:23;;;;;;;12.02;8.25;;;;;;;;;;6296626;28;20056;-72
2023/05/09 17:14:54;;;;;;;10.48;7.95;;;;;;;;;;6294278;28;20224;-74
2023/05/09 17:21:19;;;;;;;12.73;9.30;;;;;;;;;;6285525;28;20052;-73
2023/05/09 17:24:42;;;;;;;13.02;7.93;;;;;;;;;;6288260;28;20114;-73
2023/05/09 17:27:55;;;;;;;12.32;9.73;;;;;;;;;;6317806;28;20057;-73
2023/05/09 17:30:58;;;;;;;10.45;8.68;;;;;;;;;;6321747;28;20068;-72
2023/05/09 17:34:00;;;;;;;12.48;9.48;;;;;;;;;;6322904;28;20052;-72
2023/05/09 17:37:04;;;;;;;15.77;10.88;;;;;;;;;;6318362;28;20052;-73
2023/05/09 17:40:07;;;;;;;14.82;11.55;;;;;;;;;;6320716;28;21938;-71
2023/05/09 17:43:10;;;;;;;14.93;11.80;;;;;;;;;;6322410;28;20085;-71
2023/05/09 17:46:13;;;;;;;20.02;13.73;;;;;;;;;;6323351;28;20282;-70
2023/05/09 17:49:15;;;;;;;22.52;15.40;;;;;;;;;;6324300;28;20060;-70
2023/05/09 17:52:17;;;;;;;52.90;33.13;;;;;;;;;;6317563;28;20115;-73
2023/05/09 17:55:19;;;;;;;119.57;66.75;;;;;;;;;;6322112;28;20055;-73
2023/05/09 17:58:22;;;;;;;126.97;72.20;;;;;;;;;;6323806;28;20165;-72
2023/05/09 18:01:24;;;;;;;49.95;33.65;;;;;;;;;;6325074;28;20044;-72
2023/05/09 18:04:29;;;;;;;70.90;43.58;;;;;;;;;;6323604;28;20174;-72
2023/05/09 18:07:32;;;;;;;36.10;24.45;;;;;;;;;;6325851;28;20127;-70
2023/05/09 18:10:34;;;;;;;19.98;14.93;;;;;;;;;;6319723;28;20113;-70
2023/05/09 18:13:37;;;;;;;18.92;14.63;;;;;;;;;;6326172;28;20054;-70
2023/05/09 18:16:38;;;;;;;19.10;16.23;;;;;;;;;;6321748;28;20052;-71
2023/05/09 18:19:41;;;;;;;21.60;15.25;;;;;;;;;;6323376;28;20048;-71
2023/05/09 18:22:42;;;;;;;22.85;15.10;;;;;;;;;;6325800;28;20052;-70
2023/05/09 18:25:44;;;;;;;23.15;16.98;;;;;;;;;;6323040;28;20055;-71
2023/05/09 18:28:47;;;;;;;24.77;16.63;;;;;;;;;;6325205;28;20109;-71
2023/05/09 18:31:49;;;;;;;26.37;17.17;;;;;;;;;;6328339;28;20047;-71
2023/05/09 18:34:51;;;;;;;23.48;18.15;;;;;;;;;;6325895;28;20450;-71
2023/05/09 18:37:52;;;;;;;21.85;17.63;;;;;;;;;;6322852;28;20235;-71
2023/05/09 18:40:55;;;;;;;23.38;16.55;;;;;;;;;;6326641;28;20809;-70
2023/05/09 18:43:58;;;;;;;21.52;17.10;;;;;;;;;;6326269;28;20425;-70
2023/05/09 18:47:00;;;;;;;21.23;16.80;;;;;;;;;;6327817;28;20123;-70
2023/05/09 18:50:02;;;;;;;21.75;16.20;;;;;;;;;;6327066;28;20367;-70
2023/05/09 18:53:04;;;;;;;21.38;16.00;;;;;;;;;;6324016;28;20067;-70
2023/05/09 18:56:10;;;;;;;20.63;16.67;;;;;;;;;;6327253;28;20045;-70
2023/05/09 18:59:15;;;;;;;22.45;16.83;;;;;;;;;;6322448;28;20174;-70
2023/05/09 19:02:16;;;;;;;21.42;17.95;;;;;;;;;;6325776;28;20168;-71
2023/05/09 19:05:19;;;;;;;21.25;18.00;;;;;;;;;;6326810;28;20075;-70
2023/05/09 19:08:20;;;;;;;23.23;19.17;;;;;;;;;;6324097;28;20067;-69
2023/05/09 19:11:22;;;;;;;22.73;17.45;;;;;;;;;;6323472;28;20056;-69
2023/05/09 19:14:25;;;;;;;23.70;19.02;;;;;;;;;;6324000;28;20059;-69
2023/05/09 19:17:27;;;;;;;22.80;19.30;;;;;;;;;;6324931;28;20075;-70
2023/05/09 19:20:29;;;;;;;25.02;19.98;;;;;;;;;;6322242;28;20056;-69
2023/05/09 19:23:31;;;;;;;23.67;19.45;;;;;;;;;;6324605;28;20048;-69
2023/05/09 19:26:32;;;;;;;23.88;18.55;;;;;;;;;;6327121;28;20248;-69
2023/05/09 19:29:35;;;;;;;23.35;15.98;;;;;;;;;;6325039;28;20056;-69
2023/05/09 19:32:37;;;;;;;18.03;14.77;;;;;;;;;;6325289;28;20051;-70
2023/05/09 19:35:38;;;;;;;17.98;14.07;;;;;;;;;;6326154;28;20177;-69
2023/05/09 19:38:40;;;;;;;20.42;14.55;;;;;;;;;;6321677;28;20094;-69
2023/05/09 19:41:42;;;;;;;23.02;15.63;;;;;;;;;;6322751;28;20048;-69
2023/05/09 19:44:45;;;;;;;18.33;13.77;;;;;;;;;;6323261;28;20044;-69
2023/05/09 19:47:47;;;;;;;19.95;14.10;;;;;;;;;;6324589;28;20116;-69
2023/05/09 19:50:48;;;;;;;16.98;13.38;;;;;;;;;;6325410;28;20115;-69
2023/05/09 19:53:50;;;;;;;18.60;13.93;;;;;;;;;;6323870;28;20059;-69
2023/05/09 19:56:51;;;;;;;17.02;12.77;;;;;;;;;;6324067;28;20052;-69
2023/05/09 19:59:56;;;;;;;16.77;12.35;;;;;;;;;;6323343;28;20044;-69
2023/05/09 20:02:58;;;;;;;18.60;14.07;;;;;;;;;;6320862;28;20054;-69
2023/05/09 20:06:00;;;;;;;19.42;13.25;;;;;;;;;;6321559;28;20962;-70
2023/05/09 20:09:01;;;;;;;17.42;12.90;;;;;;;;;;6317776;28;20060;-69
2023/05/09 20:12:03;;;;;;;15.93;11.90;;;;;;;;;;6327699;28;20051;-69
2023/05/09 20:15:07;;;;;;;17.10;12.13;;;;;;;;;;6322976;28;20105;-67
2023/05/09 20:18:09;;;;;;;15.32;12.15;;;;;;;;;;6321735;28;20111;-69
2023/05/09 20:21:12;;;;;;;19.63;12.73;;;;;;;;;;6324398;28;20060;-70
2023/05/09 20:24:13;;;;;;;15.75;11.27;;;;;;;;;;6322760;28;20052;-70
2023/05/09 20:27:16;;;;;;;14.48;11.32;;;;;;;;;;6324427;28;20059;-70
2023/05/09 20:30:19;;;;;;;15.20;10.82;;;;;;;;;;6322169;28;20110;-71
2023/05/09 20:33:21;;;;;;;16.05;10.55;;;;;;;;;;6325073;27;20058;-70
2023/05/09 20:36:23;;;;;;;12.77;10.52;;;;;;;;;;6325056;28;20063;-70
2023/05/09 20:39:25;;;;;;;14.15;10.93;;;;;;;;;;6324496;28;20155;-69
2023/05/09 20:42:27;;;;;;;13.68;10.50;;;;;;;;;;6329987;28;20059;-70
2023/05/09 20:45:31;;;;;;;14.40;10.18;;;;;;;;;;6325898;28;20052;-70
2023/05/09 20:48:33;;;;;;;13.25;10.20;;;;;;;;;;6323634;28;20052;-70
2023/05/09 20:51:35;;;;;;;14.65;10.52;;;;;;;;;;6321132;28;20364;-75
2023/05/09 20:54:37;;;;;;;14.75;10.75;;;;;;;;;;6325292;28;20101;-69
2023/05/09 20:57:38;;;;;;;14.77;10.60;;;;;;;;;;6321674;28;20118;-70
2023/05/09 21:00:41;;;;;;;15.38;10.15;;;;;;;;;;6323471;28;20046;-70
2023/05/09 21:03:43;;;;;;;13.57;10.63;;;;;;;;;;6325976;28;20054;-70
2023/05/09 21:06:45;;;;;;;14.68;10.98;;;;;;;;;;6325834;28;20048;-71
2023/05/09 21:09:46;;;;;;;17.10;11.93;;;;;;;;;;6324470;28;20052;-69